Time;durP1;ratioP1;P1;durP2;ratioP2;P2;SDS_P1;SDS_P2;PMS_P1;PMS_P2;Temp;Humidity;BMP_temperature;BMP_pressure;BME280_temperature;BME280_humidity;BME280_pressure;Samples;Min_cycle;Max_cycle;Signal;HPM_P1;HPM_P2
2021/01/20 00:02:09;;;;;;;5.72;2.83;;;-0.60;95.30;;;;;;4971834;28;20022;-70
2021/01/20 00:04:35;;;;;;;5.23;3.13;;;-0.50;95.20;;;;;;4972082;28;20539;-71
2021/01/20 00:07:01;;;;;;;9.20;3.88;;;-0.50;95.10;;;;;;4968992;28;20034;-72
2021/01/20 00:09:26;;;;;;;5.60;3.03;;;-0.50;95.00;;;;;;4967721;28;20084;-70
2021/01/20 00:11:52;;;;;;;7.35;3.30;;;-0.60;95.10;;;;;;4967677;28;20042;-72
2021/01/20 00:14:18;;;;;;;18.50;4.05;;;-0.70;95.50;;;;;;4966511;28;20049;-71
2021/01/20 00:16:44;;;;;;;9.18;4.30;;;-0.70;95.60;;;;;;4975259;28;20030;-70
2021/01/20 00:19:11;;;;;;;9.10;5.20;;;-0.80;95.90;;;;;;4968289;28;20042;-71
2021/01/20 00:21:37;;;;;;;14.55;5.93;;;-0.90;96.20;;;;;;4966016;28;20531;-70
2021/01/20 00:24:03;;;;;;;7.38;4.35;;;-1.10;96.90;;;;;;4966269;28;20062;-70
2021/01/20 00:26:29;;;;;;;6.22;3.22;;;-1.20;96.70;;;;;;4972561;28;20080;-70
2021/01/20 00:28:54;;;;;;;6.88;3.70;;;-1.10;96.50;;;;;;4966371;28;20554;-71
2021/01/20 00:31:20;;;;;;;7.53;3.97;;;-1.10;96.70;;;;;;4966381;28;20049;-71
2021/01/20 00:33:46;;;;;;;9.43;3.88;;;-1.10;96.60;;;;;;4967017;28;20062;-70
2021/01/20 00:36:12;;;;;;;6.78;3.45;;;-1.10;96.10;;;;;;4970126;28;20026;-70
2021/01/20 00:38:38;;;;;;;12.23;3.90;;;-0.90;96.00;;;;;;4988113;28;20065;-70
2021/01/20 00:41:03;;;;;;;6.40;3.10;;;-0.80;95.10;;;;;;4984983;28;20485;-69
2021/01/20 00:43:29;;;;;;;5.97;2.90;;;-0.90;95.30;;;;;;4989872;28;20041;-70
2021/01/20 00:45:55;;;;;;;7.28;3.70;;;-0.90;95.60;;;;;;4992901;28;20444;-70
2021/01/20 00:48:21;;;;;;;9.90;3.85;;;-1.00;96.00;;;;;;4985044;28;20030;-70
2021/01/20 00:50:47;;;;;;;6.90;3.15;;;-0.90;95.50;;;;;;4972289;28;20030;-70
2021/01/20 00:53:12;;;;;;;10.23;3.30;;;-1.00;95.80;;;;;;4967977;28;20077;-71
2021/01/20 00:55:38;;;;;;;6.40;3.28;;;-0.80;95.80;;;;;;4965823;28;20113;-71
2021/01/20 00:58:03;;;;;;;6.57;3.63;;;-0.80;95.20;;;;;;4971513;28;20133;-71
2021/01/20 01:00:29;;;;;;;5.90;3.33;;;-0.80;95.80;;;;;;4965742;28;20696;-71
2021/01/20 01:02:55;;;;;;;6.80;3.47;;;-0.90;95.20;;;;;;4970576;28;20512;-71
2021/01/20 01:05:21;;;;;;;9.07;3.15;;;-0.90;95.40;;;;;;4968711;28;20045;-71
2021/01/20 01:07:46;;;;;;;7.68;3.67;;;-0.70;94.80;;;;;;4965633;28;20045;-72
2021/01/20 01:10:13;;;;;;;6.97;3.50;;;-0.70;95.00;;;;;;4969915;28;20030;-71
2021/01/20 01:12:38;;;;;;;9.52;4.32;;;-0.80;95.20;;;;;;4965946;28;20069;-72
2021/01/20 01:15:06;;;;;;;7.38;4.20;;;-0.90;95.30;;;;;;4965125;28;20742;-72
2021/01/20 01:17:31;;;;;;;8.93;3.55;;;-1.00;95.30;;;;;;4966902;28;20038;-71
2021/01/20 01:19:57;;;;;;;6.68;3.45;;;-1.00;95.90;;;;;;4971039;28;20037;-71
2021/01/20 01:22:22;;;;;;;7.25;3.28;;;-1.10;96.00;;;;;;4965835;28;20448;-71
2021/01/20 01:24:48;;;;;;;7.33;3.63;;;-1.10;95.70;;;;;;4965856;28;20030;-71
2021/01/20 01:27:14;;;;;;;8.13;3.30;;;-1.00;95.50;;;;;;4964953;28;20713;-72
2021/01/20 01:29:39;;;;;;;6.93;2.95;;;-1.10;95.90;;;;;;4973307;28;20392;-72
2021/01/20 01:32:06;;;;;;;6.22;3.15;;;-1.10;96.00;;;;;;4964282;28;20038;-73
2021/01/20 01:34:33;;;;;;;5.95;3.17;;;-1.10;95.70;;;;;;4967117;28;20027;-70
2021/01/20 01:36:59;;;;;;;6.82;2.65;;;-1.10;95.80;;;;;;4964239;28;20033;-71
2021/01/20 01:39:24;;;;;;;7.40;3.53;;;-1.10;95.90;;;;;;4969454;28;20080;-71
2021/01/20 01:41:50;;;;;;;5.70;3.15;;;-1.20;96.30;;;;;;4969288;28;20027;-71
2021/01/20 01:44:19;;;;;;;6.20;2.92;;;-1.20;96.10;;;;;;4965495;28;20147;-71
2021/01/20 01:46:45;;;;;;;7.50;3.33;;;-1.10;95.70;;;;;;4966660;28;20065;-71
2021/01/20 01:49:11;;;;;;;7.18;3.33;;;-1.10;95.80;;;;;;4982894;28;20153;-72
2021/01/20 01:51:38;;;;;;;6.30;2.75;;;-1.10;95.90;;;;;;4975420;28;20034;-72
2021/01/20 01:54:04;;;;;;;8.35;3.47;;;-1.10;96.00;;;;;;4965511;28;20129;-71
2021/01/20 01:56:30;;;;;;;8.88;3.75;;;-1.10;96.00;;;;;;4965777;28;20097;-71
2021/01/20 01:58:57;;;;;;;6.88;3.17;;;-1.30;96.30;;;;;;4963705;28;20125;-72
2021/01/20 02:01:22;;;;;;;7.05;3.00;;;-1.20;95.90;;;;;;4972170;28;20035;-71
2021/01/20 02:03:52;;;;;;;7.43;3.38;;;-1.10;95.70;;;;;;4966320;28;20378;-71
2021/01/20 02:06:18;;;;;;;10.15;3.58;;;-1.10;95.90;;;;;;4964779;28;20038;-72
2021/01/20 02:08:46;;;;;;;6.20;3.28;;;-1.00;95.70;;;;;;4966053;28;20069;-71
2021/01/20 02:11:37;;;;;;;6.50;3.30;;;-1.00;95.70;;;;;;4966141;28;20034;-71
2021/01/20 02:14:21;;;;;;;8.10;3.78;;;-1.10;95.90;;;;;;4965875;28;20073;-71
2021/01/20 02:17:06;;;;;;;7.82;3.58;;;-1.10;96.00;;;;;;4970446;28;20032;-72
2021/01/20 02:20:09;;;;;;;8.77;3.30;;;-1.20;96.00;;;;;;4965340;28;20046;-71
2021/01/20 02:22:34;;;;;;;7.82;3.47;;;-1.20;95.90;;;;;;4969649;28;20121;-71
2021/01/20 02:25:28;;;;;;;8.38;3.60;;;-1.20;96.00;;;;;;4968806;28;20030;-71
2021/01/20 02:28:05;;;;;;;5.88;2.58;;;-1.30;96.30;;;;;;4964216;28;20091;-71
2021/01/20 02:30:33;;;;;;;8.25;3.03;;;-1.10;96.00;;;;;;4964392;28;20038;-71
2021/01/20 02:33:00;;;;;;;7.70;3.28;;;-1.10;96.10;;;;;;4971142;28;20501;-72
2021/01/20 02:35:27;;;;;;;7.32;3.10;;;-1.20;96.20;;;;;;4963317;28;20033;-71
2021/01/20 02:37:54;;;;;;;8.18;3.42;;;-0.90;95.50;;;;;;4964249;28;20035;-72
2021/01/20 02:40:20;;;;;;;8.02;3.92;;;-1.10;95.80;;;;;;4972877;28;20035;-71
2021/01/20 02:42:47;;;;;;;12.55;3.80;;;-1.20;96.20;;;;;;4966165;28;20030;-71
2021/01/20 02:45:14;;;;;;;7.38;3.22;;;-1.30;96.30;;;;;;4968558;28;20481;-71
2021/01/20 02:47:41;;;;;;;8.77;3.70;;;-1.30;96.30;;;;;;4965693;28;20134;-72
2021/01/20 02:50:07;;;;;;;9.32;4.43;;;-1.30;96.40;;;;;;4963685;28;20523;-72
2021/01/20 02:53:01;;;;;;;7.80;3.67;;;-1.20;96.50;;;;;;4962486;28;20097;-72
2021/01/20 02:55:29;;;;;;;7.75;3.47;;;-1.30;96.10;;;;;;4970371;28;20440;-71
2021/01/20 02:58:04;;;;;;;6.75;3.97;;;-1.40;96.50;;;;;;4967483;28;20041;-72
2021/01/20 03:00:31;;;;;;;10.13;3.80;;;-1.40;96.40;;;;;;4979353;28;20030;-72
2021/01/20 03:02:58;;;;;;;5.32;3.05;;;-1.30;96.40;;;;;;4984732;28;20035;-70
2021/01/20 03:05:26;;;;;;;7.82;3.58;;;-1.30;96.40;;;;;;4970407;28;20030;-70
2021/01/20 03:07:52;;;;;;;9.27;3.83;;;-1.20;96.30;;;;;;4978985;28;20058;-71
2021/01/20 03:10:18;;;;;;;7.88;3.92;;;-1.30;96.50;;;;;;4974466;28;20401;-71
2021/01/20 03:12:45;;;;;;;8.90;3.63;;;-1.20;96.40;;;;;;4962683;28;20050;-71
2021/01/20 03:15:16;;;;;;;8.05;3.90;;;-1.20;96.70;;;;;;4967213;28;20501;-71
2021/01/20 03:17:43;;;;;;;5.95;3.38;;;-1.30;96.60;;;;;;4966374;28;20444;-72
2021/01/20 03:20:10;;;;;;;6.72;3.38;;;-1.50;97.30;;;;;;4985217;28;20397;-72
2021/01/20 03:22:35;;;;;;;7.28;3.33;;;-1.60;97.50;;;;;;4971539;28;20034;-72
2021/01/20 03:25:02;;;;;;;6.97;3.53;;;-1.70;97.60;;;;;;4964678;28;20079;-71
2021/01/20 03:27:28;;;;;;;8.15;4.38;;;-1.60;96.90;;;;;;4968580;28;20034;-72
2021/01/20 03:29:54;;;;;;;7.07;3.13;;;-1.60;97.00;;;;;;4964182;28;20092;-71
2021/01/20 03:32:19;;;;;;;8.25;3.35;;;-1.50;97.20;;;;;;4967760;28;20054;-72
2021/01/20 03:34:45;;;;;;;11.40;3.30;;;-1.50;97.00;;;;;;4962479;28;20046;-71
2021/01/20 03:37:11;;;;;;;8.52;3.63;;;-1.50;97.10;;;;;;4970399;28;20105;-72
2021/01/20 03:39:36;;;;;;;7.10;3.42;;;-1.50;97.30;;;;;;4981163;28;20033;-72
2021/01/20 03:42:03;;;;;;;5.85;3.03;;;-1.50;97.50;;;;;;4968684;28;20043;-71
2021/01/20 03:44:28;;;;;;;10.68;3.30;;;-1.70;97.50;;;;;;4973116;28;20034;-71
2021/01/20 03:46:54;;;;;;;8.02;4.22;;;-1.70;97.40;;;;;;4992963;28;20100;-72
2021/01/20 03:49:20;;;;;;;8.68;2.97;;;-1.70;97.60;;;;;;4968422;28;20050;-71
2021/01/20 03:51:45;;;;;;;8.90;3.28;;;-1.70;97.80;;;;;;4966000;28;20036;-71
2021/01/20 03:54:14;;;;;;;5.95;3.10;;;-1.70;97.80;;;;;;4964567;28;20035;-71
2021/01/20 03:56:40;;;;;;;8.50;2.80;;;-1.60;97.50;;;;;;4967597;28;20066;-72
2021/01/20 03:59:06;;;;;;;8.55;4.15;;;-1.60;97.40;;;;;;4973223;28;20518;-71
2021/01/20 04:01:33;;;;;;;6.63;3.13;;;-1.50;97.20;;;;;;4977215;28;20497;-72
2021/01/20 04:03:58;;;;;;;7.88;3.30;;;-1.60;97.60;;;;;;4960803;28;20113;-72
2021/01/20 04:06:24;;;;;;;8.18;3.50;;;-1.90;97.60;;;;;;4958978;28;20034;-72
2021/01/20 04:08:50;;;;;;;6.93;3.50;;;-1.90;97.70;;;;;;4965041;28;20037;-72
2021/01/20 04:11:17;;;;;;;7.85;3.60;;;-1.80;98.00;;;;;;4963155;28;20050;-72
2021/01/20 04:13:43;;;;;;;6.70;3.05;;;-1.80;99.40;;;;;;4959812;28;20034;-72
2021/01/20 04:16:09;;;;;;;5.77;3.10;;;-2.00;98.20;;;;;;4960699;28;20503;-72
2021/01/20 04:18:34;;;;;;;8.20;3.50;;;-2.10;98.50;;;;;;4962008;28;20050;-71
2021/01/20 04:21:00;;;;;;;8.02;3.67;;;-2.00;98.50;;;;;;4958911;28;20038;-72
2021/01/20 04:23:26;;;;;;;7.22;3.13;;;-2.00;98.40;;;;;;4960712;28;20031;-72
2021/01/20 04:25:51;;;;;;;6.80;3.67;;;-1.90;98.00;;;;;;4957651;28;20035;-72
2021/01/20 04:28:17;;;;;;;6.00;2.93;;;-1.60;97.00;;;;;;4970809;28;20137;-72
2021/01/20 04:30:42;;;;;;;5.00;2.67;;;-1.30;96.40;;;;;;4957879;28;20114;-71
2021/01/20 04:33:08;;;;;;;8.85;4.15;;;-1.50;97.10;;;;;;4958839;28;20130;-72
2021/01/20 04:35:34;;;;;;;9.20;4.32;;;-1.80;97.70;;;;;;4960136;28;20044;-72
2021/01/20 04:38:01;;;;;;;6.80;3.33;;;-2.00;98.10;;;;;;4959990;28;20048;-72
2021/01/20 04:40:27;;;;;;;13.43;5.50;;;-1.90;98.10;;;;;;4960512;28;20035;-72
2021/01/20 04:42:53;;;;;;;14.07;7.05;;;-1.80;97.80;;;;;;4958224;28;20042;-72
2021/01/20 04:45:18;;;;;;;7.78;4.00;;;-1.80;97.80;;;;;;4957783;28;20578;-72
2021/01/20 04:47:45;;;;;;;5.93;3.20;;;-1.90;98.00;;;;;;4958786;28;20423;-72
2021/01/20 04:50:13;;;;;;;6.38;2.83;;;-1.80;98.50;;;;;;4961655;28;20039;-72
2021/01/20 04:52:44;;;;;;;8.10;3.97;;;-1.90;98.10;;;;;;4959713;28;20031;-74
2021/01/20 04:55:10;;;;;;;10.53;4.40;;;-2.10;98.70;;;;;;4957447;28;20041;-72
2021/01/20 04:57:37;;;;;;;4.90;2.80;;;-2.30;99.60;;;;;;4957483;28;20381;-72
2021/01/20 05:00:07;;;;;;;7.67;3.20;;;-2.30;99.90;;;;;;4963606;28;20089;-72
2021/01/20 05:02:34;;;;;;;7.63;2.90;;;-2.10;99.00;;;;;;4952016;28;20586;-72
2021/01/20 05:05:01;;;;;;;10.50;4.07;;;-2.00;98.30;;;;;;4958092;28;20026;-72
2021/01/20 05:07:28;;;;;;;8.43;3.87;;;-2.00;98.30;;;;;;4958462;28;20074;-72
2021/01/20 05:09:54;;;;;;;7.93;3.40;;;-2.20;98.60;;;;;;4963986;28;20030;-72
2021/01/20 05:12:39;;;;;;;6.83;3.40;;;-2.30;99.50;;;;;;4957148;28;20103;-72
2021/01/20 05:15:07;;;;;;;6.87;2.63;;;-2.30;99.30;;;;;;4957754;28;20058;-72
2021/01/20 05:17:34;;;;;;;10.10;3.60;;;-1.90;98.00;;;;;;4964464;28;20628;-72
2021/01/20 05:20:00;;;;;;;5.87;3.27;;;-1.50;97.10;;;;;;4963092;28;20036;-72
2021/01/20 05:22:26;;;;;;;5.23;2.57;;;-1.60;97.00;;;;;;4959675;28;20061;-72
2021/01/20 05:25:00;;;;;;;10.27;3.70;;;-1.50;97.00;;;;;;4958250;28;20383;-72
2021/01/20 05:27:30;;;;;;;7.80;3.42;;;-1.70;97.40;;;;;;4956831;28;20108;-72
2021/01/20 05:29:58;;;;;;;9.10;4.30;;;-1.80;97.30;;;;;;4958065;28;20084;-72
2021/01/20 05:32:23;;;;;;;6.90;3.53;;;-1.70;97.70;;;;;;4963167;28;20361;-72
2021/01/20 05:35:07;;;;;;;7.70;4.40;;;-1.70;98.00;;;;;;4957279;28;20422;-72
2021/01/20 05:37:45;;;;;;;8.50;2.95;;;-1.80;98.10;;;;;;4967751;28;20026;-72
2021/01/20 05:40:13;;;;;;;10.80;5.15;;;-2.00;98.50;;;;;;4969741;28;20034;-72
2021/01/20 05:42:50;;;;;;;5.47;3.00;;;-2.10;99.20;;;;;;4963314;28;20030;-72
2021/01/20 05:45:26;;;;;;;6.35;3.10;;;-2.10;99.90;;;;;;4956839;28;20069;-72
2021/01/20 05:48:03;;;;;;;8.38;4.18;;;-2.10;99.70;;;;;;4958816;28;20027;-72
2021/01/20 05:50:29;;;;;;;8.55;4.65;;;-2.30;99.90;;;;;;4960068;28;20864;-72
2021/01/20 05:53:06;;;;;;;8.68;4.03;;;-2.40;99.80;;;;;;4966750;28;20513;-72
2021/01/20 05:55:32;;;;;;;6.35;3.00;;;-2.60;99.50;;;;;;4956063;28;20081;-71
2021/01/20 05:57:58;;;;;;;7.93;3.33;;;-2.40;99.50;;;;;;4956626;28;20865;-72
2021/01/20 06:00:24;;;;;;;9.10;3.63;;;-2.40;99.30;;;;;;4956482;28;20042;-72
2021/01/20 06:02:55;;;;;;;7.80;3.23;;;-2.50;99.50;;;;;;4963499;28;20369;-72
2021/01/20 06:05:20;;;;;;;8.50;3.77;;;-2.50;99.40;;;;;;4957148;28;20084;-74
2021/01/20 06:07:49;;;;;;;6.93;3.83;;;-2.30;99.20;;;;;;4956672;28;20053;-72
2021/01/20 06:10:15;;;;;;;23.47;15.87;;;-2.10;98.30;;;;;;4975071;28;20057;-72
2021/01/20 06:12:40;;;;;;;7.90;4.10;;;-2.10;98.90;;;;;;4981903;28;20030;-72
2021/01/20 06:15:06;;;;;;;7.03;3.63;;;-2.20;99.00;;;;;;4983816;28;20484;-74
2021/01/20 06:17:44;;;;;;;8.05;3.78;;;-2.20;98.90;;;;;;4984451;28;20058;-74
2021/01/20 06:20:11;;;;;;;10.93;4.00;;;-2.00;98.40;;;;;;4983193;28;20033;-72
2021/01/20 06:22:46;;;;;;;8.17;3.53;;;-2.00;98.30;;;;;;4982758;28;20026;-73
2021/01/20 06:25:20;;;;;;;10.53;3.63;;;-1.90;98.30;;;;;;4965661;28;21716;-73
2021/01/20 06:28:05;;;;;;;6.60;3.90;;;-2.20;98.70;;;;;;4958454;28;20046;-73
2021/01/20 06:30:40;;;;;;;10.00;3.60;;;-2.30;99.20;;;;;;4955160;28;20026;-74
2021/01/20 06:33:08;;;;;;;7.82;3.60;;;-2.30;99.60;;;;;;4966827;28;20043;-73
2021/01/20 06:35:42;;;;;;;8.98;4.00;;;-2.20;99.10;;;;;;4983378;28;20532;-73
2021/01/20 06:38:26;;;;;;;9.55;4.53;;;-2.20;99.10;;;;;;4982511;28;20065;-72
2021/01/20 06:41:22;;;;;;;8.15;4.35;;;-2.30;99.10;;;;;;4981979;28;20359;-72
2021/01/20 06:43:47;;;;;;;15.63;4.35;;;-2.30;99.10;;;;;;4969674;28;20097;-72
2021/01/20 06:46:26;;;;;;;10.90;4.72;;;-2.00;98.20;;;;;;4962787;28;20042;-72
2021/01/20 06:48:52;;;;;;;10.40;3.60;;;-2.30;99.80;;;;;;4955131;28;20030;-71
2021/01/20 06:51:17;;;;;;;9.63;4.03;;;-2.30;99.40;;;;;;4956395;28;20053;-72
2021/01/20 06:54:09;;;;;;;11.05;3.35;;;-2.20;99.00;;;;;;4969932;28;20034;-72
2021/01/20 06:56:42;;;;;;;7.37;3.23;;;-2.20;98.70;;;;;;4983670;28;20057;-72
2021/01/20 06:59:30;;;;;;;6.70;3.73;;;-2.10;98.50;;;;;;4964853;28;20069;-72
2021/01/20 07:02:01;;;;;;;10.17;4.30;;;-2.10;98.80;;;;;;4961489;28;20034;-72
2021/01/20 07:04:39;;;;;;;8.07;3.73;;;-2.20;99.10;;;;;;4957362;28;20034;-72
2021/01/20 07:07:10;;;;;;;11.75;4.80;;;-2.10;98.80;;;;;;4957403;28;20050;-70
2021/01/20 07:09:50;;;;;;;7.10;3.70;;;-2.20;99.10;;;;;;4957548;28;20042;-73
2021/01/20 07:12:24;;;;;;;11.67;4.17;;;-2.20;99.20;;;;;;4967522;28;20107;-72
2021/01/20 07:14:50;;;;;;;9.50;4.73;;;-2.30;99.30;;;;;;4960081;28;20105;-72
2021/01/20 07:17:17;;;;;;;9.90;4.27;;;-2.50;99.70;;;;;;4960971;28;20030;-72
2021/01/20 07:19:48;;;;;;;9.10;4.47;;;-2.30;99.80;;;;;;4959325;28;20366;-72
2021/01/20 07:22:14;;;;;;;9.50;4.53;;;-2.40;99.80;;;;;;4961331;28;20161;-72
2021/01/20 07:24:40;;;;;;;9.60;4.60;;;-2.50;99.90;;;;;;4960555;28;20038;-72
2021/01/20 07:27:11;;;;;;;9.52;5.03;;;-2.40;99.90;;;;;;4969030;28;20030;-72
2021/01/20 07:29:37;;;;;;;10.77;4.37;;;-2.50;99.90;;;;;;4960431;28;20044;-72
2021/01/20 07:32:03;;;;;;;9.93;5.37;;;-2.50;99.90;;;;;;4959030;28;20049;-72
2021/01/20 07:34:43;;;;;;;12.60;6.07;;;-2.30;99.70;;;;;;4979274;28;20054;-74
2021/01/20 07:37:17;;;;;;;10.55;4.03;;;-2.40;99.90;;;;;;4979235;28;20030;-71
2021/01/20 07:39:45;;;;;;;6.90;3.00;;;-2.30;99.60;;;;;;4975895;28;20046;-73
2021/01/20 07:42:11;;;;;;;8.07;4.00;;;-2.10;99.20;;;;;;4987388;28;20034;-72
2021/01/20 07:44:46;;;;;;;8.02;3.47;;;-1.90;98.70;;;;;;4967543;28;20034;-71
2021/01/20 07:47:12;;;;;;;8.20;3.93;;;-1.80;98.50;;;;;;4964935;28;20031;-72
2021/01/20 07:49:51;;;;;;;9.73;4.73;;;-1.70;98.30;;;;;;4959557;28;20037;-72
2021/01/20 07:52:18;;;;;;;8.93;4.30;;;-1.80;98.90;;;;;;4962733;28;20026;-72
2021/01/20 07:54:45;;;;;;;8.80;4.05;;;-1.80;98.90;;;;;;4959524;28;20031;-72
2021/01/20 07:57:21;;;;;;;10.00;4.40;;;-1.80;98.90;;;;;;4959900;28;20026;-72
2021/01/20 08:00:02;;;;;;;10.63;4.20;;;-1.80;99.20;;;;;;4959518;28;20947;-72
2021/01/20 08:02:28;;;;;;;10.32;3.72;;;-1.80;99.10;;;;;;4966747;28;20029;-72
2021/01/20 08:05:00;;;;;;;12.13;5.63;;;-1.80;99.10;;;;;;4986466;28;20026;-72
2021/01/20 08:07:26;;;;;;;9.45;4.65;;;-2.10;99.70;;;;;;4969866;28;20608;-72
2021/01/20 08:09:52;;;;;;;13.33;5.53;;;-2.10;99.80;;;;;;4985067;28;20108;-72
2021/01/20 08:12:30;;;;;;;11.32;5.10;;;-2.10;99.90;;;;;;4984768;28;20481;-72
2021/01/20 08:14:57;;;;;;;16.20;4.87;;;-2.00;99.90;;;;;;4961959;28;20030;-72
2021/01/20 08:17:24;;;;;;;12.45;6.00;;;-2.10;99.70;;;;;;4958829;28;20030;-72
2021/01/20 08:19:53;;;;;;;9.43;4.78;;;-2.00;99.90;;;;;;4958922;28;20034;-72
2021/01/20 08:22:19;;;;;;;14.30;6.95;;;-1.90;99.90;;;;;;4970143;28;20023;-72
2021/01/20 08:24:46;;;;;;;13.82;6.50;;;-1.90;99.90;;;;;;4968743;28;20038;-72
2021/01/20 08:27:12;;;;;;;12.35;6.55;;;-1.90;99.70;;;;;;4959903;28;20034;-76
2021/01/20 08:29:51;;;;;;;13.88;7.63;;;-2.00;99.90;;;;;;4959914;28;20261;-73
2021/01/20 08:32:17;;;;;;;15.98;7.60;;;-2.00;99.90;;;;;;4963380;28;20038;-72
2021/01/20 08:34:46;;;;;;;12.30;6.53;;;-1.80;99.90;;;;;;4978329;28;20034;-75
2021/01/20 08:37:17;;;;;;;16.60;7.33;;;-1.80;99.90;;;;;;4959128;28;20058;-74
2021/01/20 08:39:56;;;;;;;11.87;6.37;;;-1.70;99.90;;;;;;4969125;28;20405;-73
2021/01/20 08:42:28;;;;;;;15.27;8.30;;;-1.50;99.80;;;;;;4986660;28;20413;-74
2021/01/20 08:45:16;;;;;;;13.93;5.63;;;-1.60;99.70;;;;;;4969744;28;20030;-75
2021/01/20 08:47:52;;;;;;;10.97;5.63;;;-1.30;99.30;;;;;;4958329;28;20044;-74
2021/01/20 08:50:27;;;;;;;11.15;6.05;;;-1.10;98.50;;;;;;4958811;28;20034;-75
2021/01/20 08:52:55;;;;;;;10.35;6.28;;;-0.80;97.80;;;;;;4960038;28;20685;-75
2021/01/20 08:55:25;;;;;;;14.18;8.80;;;-0.90;98.30;;;;;;4965756;28;20103;-75
2021/01/20 08:58:30;;;;;;;20.52;8.88;;;-1.10;98.90;;;;;;4959971;28;20674;-74
2021/01/20 09:01:01;;;;;;;16.20;7.97;;;-1.20;99.70;;;;;;4974223;28;20023;-74
2021/01/20 09:03:31;;;;;;;18.77;10.45;;;-1.20;99.50;;;;;;4964115;28;20124;-74
2021/01/20 09:05:59;;;;;;;19.80;10.63;;;-1.10;99.50;;;;;;4965968;28;20054;-78
2021/01/20 09:08:28;;;;;;;20.90;10.05;;;-1.10;99.40;;;;;;4963693;28;20066;-75
2021/01/20 09:10:55;;;;;;;14.18;8.45;;;-1.20;99.70;;;;;;4971749;28;20035;-75
2021/01/20 09:13:21;;;;;;;17.42;8.93;;;-1.10;99.90;;;;;;4961190;28;20121;-74
2021/01/20 09:15:48;;;;;;;15.52;9.30;;;-1.00;99.80;;;;;;4960802;28;20105;-73
2021/01/20 09:18:14;;;;;;;19.77;9.75;;;-1.10;99.30;;;;;;4975520;28;20440;-74
2021/01/20 09:20:41;;;;;;;15.95;10.93;;;-1.10;99.90;;;;;;4967277;28;20471;-76
2021/01/20 09:23:07;;;;;;;19.42;10.70;;;-0.90;99.90;;;;;;4960963;28;20045;-75
2021/01/20 09:25:34;;;;;;;18.45;9.32;;;-0.90;99.50;;;;;;4986191;28;20042;-74
2021/01/20 09:28:04;;;;;;;18.13;10.65;;;-0.90;99.50;;;;;;4971075;28;20133;-77
2021/01/20 09:30:30;;;;;;;19.55;9.80;;;-0.80;99.30;;;;;;4959041;28;20635;-81
2021/01/20 09:32:56;;;;;;;21.02;9.60;;;-0.80;99.60;;;;;;4964711;28;20969;-75
2021/01/20 09:35:22;;;;;;;20.13;11.18;;;-0.70;99.40;;;;;;4958966;28;20968;-75
2021/01/20 09:37:49;;;;;;;22.70;12.45;;;-0.70;98.80;;;;;;4959485;28;20070;-75
2021/01/20 09:40:17;;;;;;;19.95;10.10;;;-0.60;99.30;;;;;;4966761;28;20034;-75
2021/01/20 09:42:46;;;;;;;20.13;9.70;;;-0.80;98.90;;;;;;4967778;28;20061;-77
2021/01/20 09:45:13;;;;;;;15.95;9.68;;;-0.70;99.00;;;;;;4982757;28;20057;-84
2021/01/20 09:47:40;;;;;;;26.08;13.20;;;-0.70;98.60;;;;;;4959270;28;20055;-82
2021/01/20 09:50:08;;;;;;;30.15;15.15;;;-0.60;99.00;;;;;;4958737;28;20148;-79
2021/01/20 09:52:34;;;;;;;14.73;8.60;;;-0.60;99.00;;;;;;4959697;28;20077;-80
2021/01/20 09:54:59;;;;;;;14.80;8.38;;;-0.50;98.80;;;;;;4962416;28;20698;-75
2021/01/20 09:57:25;;;;;;;17.10;9.02;;;-0.40;97.80;;;;;;4965433;28;20117;-76
2021/01/20 09:59:51;;;;;;;17.08;7.78;;;-0.30;97.90;;;;;;4961330;28;20117;-75
2021/01/20 10:02:17;;;;;;;14.25;8.25;;;-0.10;97.70;;;;;;4958965;28;20113;-76
2021/01/20 10:04:45;;;;;;;13.32;8.90;;;0.00;97.50;;;;;;4958237;28;20038;-75
2021/01/20 10:07:11;;;;;;;13.85;7.85;;;0.00;97.80;;;;;;4966247;28;20110;-77
2021/01/20 10:09:40;;;;;;;16.10;9.55;;;-0.10;97.60;;;;;;4962511;28;20058;-76
2021/01/20 10:12:10;;;;;;;15.07;8.55;;;0.00;97.80;;;;;;4965830;28;20448;-81
2021/01/20 10:14:36;;;;;;;17.13;9.73;;;0.10;97.80;;;;;;4979126;28;20477;-76
2021/01/20 10:17:03;;;;;;;17.50;9.57;;;-0.10;98.00;;;;;;4985250;28;20124;-76
2021/01/20 10:19:29;;;;;;;20.92;11.32;;;0.10;98.10;;;;;;4986646;28;20034;-78
2021/01/20 10:21:55;;;;;;;20.90;12.48;;;0.10;98.50;;;;;;4985395;28;20030;-75
2021/01/20 10:24:21;;;;;;;18.90;10.45;;;-0.10;98.90;;;;;;4986346;28;20107;-76
2021/01/20 10:26:46;;;;;;;21.80;11.10;;;-0.20;99.40;;;;;;4984852;28;20054;-75
2021/01/20 10:29:12;;;;;;;24.33;12.70;;;-0.10;98.90;;;;;;4967201;28;20894;-76
2021/01/20 10:31:41;;;;;;;21.25;12.27;;;0.00;99.00;;;;;;4958741;28;20044;-76
2021/01/20 10:34:09;;;;;;;22.50;10.63;;;0.10;98.90;;;;;;4959392;28;20050;-75
2021/01/20 10:36:35;;;;;;;18.33;10.50;;;0.20;98.20;;;;;;4958686;28;20034;-78
2021/01/20 10:39:01;;;;;;;22.23;10.45;;;0.20;98.40;;;;;;4959939;28;21312;-74
2021/01/20 10:41:27;;;;;;;20.45;10.70;;;0.30;98.00;;;;;;4974109;28;20417;-76
2021/01/20 10:43:54;;;;;;;19.98;11.48;;;0.30;98.90;;;;;;4961688;28;21280;-74
2021/01/20 10:46:27;;;;;;;16.27;9.25;;;0.30;98.10;;;;;;4957823;28;20034;-76
2021/01/20 10:49:00;;;;;;;17.52;9.50;;;0.30;96.90;;;;;;4959451;28;20052;-76
2021/01/20 10:51:34;;;;;;;20.55;9.73;;;0.40;97.30;;;;;;4958065;28;20053;-75
2021/01/20 10:54:04;;;;;;;21.35;13.20;;;0.40;97.90;;;;;;4962642;28;20038;-75
2021/01/20 10:56:30;;;;;;;16.77;10.23;;;0.50;98.40;;;;;;4957821;28;20144;-76
2021/01/20 10:58:56;;;;;;;18.50;11.40;;;0.50;97.80;;;;;;4959316;28;20044;-75
2021/01/20 11:01:22;;;;;;;17.25;9.82;;;0.60;97.40;;;;;;4957914;28;20034;-75
2021/01/20 11:03:49;;;;;;;17.60;10.40;;;0.60;97.80;;;;;;4962470;28;20066;-77
2021/01/20 11:06:15;;;;;;;21.33;11.43;;;0.60;97.70;;;;;;4957526;28;20046;-75
2021/01/20 11:08:41;;;;;;;24.10;15.30;;;0.60;98.30;;;;;;4956007;28;20034;-75
2021/01/20 11:11:07;;;;;;;25.77;14.32;;;0.80;98.70;;;;;;4959860;28;20041;-83
2021/01/20 11:13:33;;;;;;;21.50;11.80;;;0.60;98.70;;;;;;4959559;28;20482;-76
2021/01/20 11:15:59;;;;;;;24.45;13.00;;;0.50;98.80;;;;;;4963557;28;20488;-77
2021/01/20 11:18:27;;;;;;;25.63;14.02;;;0.50;99.00;;;;;;4967761;28;20053;-77
2021/01/20 11:20:53;;;;;;;24.48;12.70;;;0.40;99.00;;;;;;4985648;28;20218;-77
2021/01/20 11:23:19;;;;;;;24.42;12.20;;;0.40;98.80;;;;;;4976096;28;20540;-79
2021/01/20 11:25:51;;;;;;;22.52;10.85;;;0.50;98.00;;;;;;4983944;28;20025;-76
2021/01/20 11:28:17;;;;;;;24.33;13.85;;;0.60;98.30;;;;;;4969165;28;20409;-76
2021/01/20 11:30:43;;;;;;;20.08;11.45;;;0.60;98.40;;;;;;4984158;28;20042;-76
2021/01/20 11:33:09;;;;;;;20.45;12.50;;;0.70;98.20;;;;;;4985902;28;20616;-75
2021/01/20 11:35:36;;;;;;;21.02;12.43;;;0.70;97.80;;;;;;4982231;28;20049;-83
2021/01/20 11:38:02;;;;;;;20.65;11.23;;;0.80;97.80;;;;;;4981423;28;20709;-75
2021/01/20 11:40:29;;;;;;;21.52;11.68;;;0.80;97.00;;;;;;4980900;28;20481;-77
2021/01/20 11:42:58;;;;;;;28.83;11.90;;;0.90;96.90;;;;;;4957802;28;20038;-75
2021/01/20 11:45:25;;;;;;;23.17;10.50;;;0.90;96.50;;;;;;4959002;28;20041;-75
2021/01/20 11:47:51;;;;;;;15.77;10.15;;;1.10;96.30;;;;;;4961329;28;20038;-76
2021/01/20 11:50:17;;;;;;;22.35;11.20;;;1.00;96.00;;;;;;4961708;28;20057;-75
2021/01/20 11:52:42;;;;;;;20.30;10.07;;;1.10;96.60;;;;;;4958486;28;20113;-77
2021/01/20 11:55:08;;;;;;;24.90;14.45;;;1.10;97.00;;;;;;4958197;28;20041;-74
2021/01/20 11:57:34;;;;;;;32.85;16.75;;;1.00;97.80;;;;;;4962333;28;20174;-75
2021/01/20 12:00:00;;;;;;;28.65;17.02;;;0.90;98.10;;;;;;4971584;28;20030;-75
2021/01/20 12:02:25;;;;;;;34.60;18.30;;;0.90;98.10;;;;;;4961317;28;20129;-76
2021/01/20 12:04:51;;;;;;;35.15;19.77;;;0.80;98.40;;;;;;4980110;28;20023;-74
2021/01/20 12:07:17;;;;;;;31.60;18.60;;;0.80;98.80;;;;;;4988359;28;20492;-74
2021/01/20 12:09:43;;;;;;;30.95;17.63;;;0.80;98.80;;;;;;4970381;28;20511;-75
2021/01/20 12:12:08;;;;;;;28.92;16.83;;;0.60;98.70;;;;;;4962447;28;20026;-73
2021/01/20 12:14:37;;;;;;;25.48;15.15;;;0.60;99.20;;;;;;4960480;28;20050;-73
2021/01/20 12:17:04;;;;;;;26.67;14.25;;;0.50;98.40;;;;;;4960059;28;20149;-78
2021/01/20 12:19:30;;;;;;;31.60;17.88;;;0.50;98.70;;;;;;4965911;28;20042;-75
2021/01/20 12:21:56;;;;;;;26.45;14.52;;;0.50;98.60;;;;;;4961150;28;20045;-74
2021/01/20 12:24:21;;;;;;;26.45;15.32;;;0.60;98.50;;;;;;4959123;28;20401;-74
2021/01/20 12:26:47;;;;;;;23.40;15.10;;;0.60;98.20;;;;;;4959488;28;20796;-73
2021/01/20 12:29:12;;;;;;;28.88;15.65;;;0.80;98.60;;;;;;4963165;28;20038;-74
2021/01/20 12:31:38;;;;;;;30.42;17.65;;;1.00;98.60;;;;;;4960400;28;20061;-75
2021/01/20 12:34:04;;;;;;;26.77;17.02;;;1.00;98.20;;;;;;4984689;28;20046;-78
2021/01/20 12:36:29;;;;;;;27.40;18.17;;;1.00;97.90;;;;;;4987044;28;20034;-75
2021/01/20 12:38:55;;;;;;;29.95;17.95;;;0.90;98.00;;;;;;4984791;28;20038;-75
2021/01/20 12:41:21;;;;;;;25.67;14.70;;;0.90;97.90;;;;;;4966657;28;20469;-75
2021/01/20 12:43:46;;;;;;;29.70;14.73;;;1.00;97.80;;;;;;4964930;28;20038;-74
2021/01/20 12:46:12;;;;;;;27.83;14.90;;;1.00;98.00;;;;;;4962484;28;20034;-73
2021/01/20 12:48:38;;;;;;;25.95;13.98;;;1.10;97.90;;;;;;4960579;28;20496;-75